This is the latest recevied weather packets stored in our database for station/object PU2ONU-13. If no packets are shown the sender has not sent any weather packets the latest 1 day(s).
| Time | Temp. | Humidity | Pressure | Rain* | Wind** | Luminosity | Snow |
|---|---|---|---|---|---|---|---|
| 1778047213 | 25° C | 53% | 1020 hPa | - | 0.45 m/s, 103° | - | - |
| 1778046013 | 25° C | 52% | 1020 hPa | - | 0.45 m/s, 96° | - | - |
| 1778044814 | 26.11° C | 49% | 1021 hPa | - | 0.45 m/s, 95° | - | - |
| 1778043612 | 25.56° C | 51% | 1020 hPa | - | 0.45 m/s, 95° | - | - |
| 1778042412 | 26.11° C | 50% | 1020 hPa | - | 0.45 m/s, 95° | - | - |
| 1778041213 | 26.11° C | 50% | 1021 hPa | - | 0.45 m/s, 86° | - | - |
| 1778040012 | 26.11° C | 50% | 1020 hPa | - | 0.45 m/s, 86° | - | - |
| 1778038814 | 26.67° C | 49% | 1020 hPa | - | 0.45 m/s, 86° | - | - |
| 1778037613 | 26.11° C | 51% | 1022 hPa | - | 0.45 m/s, 83° | - | - |
| 1778036413 | 27.22° C | 48% | 1021 hPa | - | 0.45 m/s, 83° | - | - |
| 1778035212 | 26.67° C | 51% | 1021 hPa | - | 0.45 m/s, 83° | - | - |
| 1778034012 | 27.78° C | 46% | 1022 hPa | - | 0.45 m/s, 87° | - | - |
| 1778031613 | 27.78° C | 46% | 1021 hPa | - | 0.45 m/s, 87° | - | - |
| 1778030413 | 28.33° C | 47% | 1022 hPa | - | 0.45 m/s, 87° | - | - |
| 1778029212 | 28.33° C | 45% | 1021 hPa | - | 0.45 m/s, 87° | - | - |
| 1778028013 | 30° C | 44% | 1021 hPa | - | 0.45 m/s, 87° | - | - |
| 1778026813 | 28.89° C | 47% | 1022 hPa | - | 0.45 m/s, 85° | - | - |
| 1778025613 | 27.78° C | 50% | 1021 hPa | - | 0.45 m/s, 85° | - | - |
| 1778024412 | 29.44° C | 48% | 1020 hPa | - | 0.45 m/s, 72° | - | - |
| 1778023213 | 28.33° C | 49% | 1021 hPa | - | 0.45 m/s, 82° | - | - |
| 1778022013 | 28.33° C | 48% | 1020 hPa | - | 0.45 m/s, 82° | - | - |
| 1778020812 | 28.89° C | 48% | 1020 hPa | - | 0.45 m/s, 82° | - | - |
| 1778019614 | 28.33° C | 48% | 1021 hPa | - | 0.45 m/s, 109° | - | - |
| 1778018414 | 28.33° C | 48% | 1020 hPa | - | 0.45 m/s, 109° | - | - |
| 1778017213 | 28.33° C | 47% | 1020 hPa | - | 0.45 m/s, 109° | - | - |
* Rain since midnight (hover to see other rain measurements)
** Current wind speed in m/s (hover to see current wind gust speed)